createdAt,value
2018-12-07T00:00:42.990Z,23.10
2018-12-07T00:03:10.082Z,22.96
2018-12-07T00:05:36.728Z,22.99
2018-12-07T00:08:03.372Z,22.82
2018-12-07T00:10:30.084Z,22.92
2018-12-07T00:12:56.742Z,22.94
2018-12-07T00:15:23.387Z,22.90
2018-12-07T00:17:50.026Z,22.89
2018-12-07T00:20:16.736Z,22.94
2018-12-07T00:22:43.388Z,22.91
2018-12-07T00:25:10.035Z,22.97
2018-12-07T00:27:36.735Z,22.98
2018-12-07T00:30:03.384Z,22.98
2018-12-07T00:32:30.037Z,22.99
2018-12-07T00:34:56.770Z,23.01
2018-12-07T00:37:23.329Z,23.00
2018-12-07T00:39:50.035Z,23.01
2018-12-07T00:42:16.684Z,23.03
2018-12-07T00:44:43.324Z,23.04
2018-12-07T00:47:09.978Z,22.99
2018-12-07T00:49:36.619Z,22.95
2018-12-07T00:52:04.025Z,22.79
2018-12-07T00:54:30.664Z,22.74
2018-12-07T00:56:57.318Z,22.81
2018-12-07T00:59:23.953Z,22.84
2018-12-07T01:01:50.661Z,22.78
2018-12-07T01:04:17.358Z,22.82
2018-12-07T01:06:43.966Z,22.82
2018-12-07T01:09:10.682Z,22.86
2018-12-07T01:11:40.157Z,22.88
2018-12-07T01:14:06.849Z,22.88
2018-12-07T01:16:33.498Z,22.93
2018-12-07T01:19:00.211Z,22.95
2018-12-07T01:21:26.889Z,22.94
2018-12-07T01:23:53.545Z,22.94
2018-12-07T01:26:20.249Z,22.93
2018-12-07T01:28:46.886Z,22.98
2018-12-07T01:31:13.535Z,22.99
2018-12-07T01:33:40.186Z,22.99
2018-12-07T01:36:06.830Z,22.91
2018-12-07T01:38:33.536Z,22.76
2018-12-07T01:41:00.177Z,22.74
2018-12-07T01:43:26.824Z,22.78
2018-12-07T01:45:53.467Z,22.78
2018-12-07T01:48:21.322Z,22.81
2018-12-07T01:50:47.983Z,22.83
2018-12-07T01:53:14.706Z,22.83
2018-12-07T01:55:41.360Z,22.85
2018-12-07T01:58:08.001Z,22.88
2018-12-07T02:00:34.705Z,22.90
2018-12-07T02:03:02.387Z,22.90
2018-12-07T02:05:29.125Z,22.89
2018-12-07T02:07:55.765Z,22.91
2018-12-07T02:10:22.412Z,22.96
2018-12-07T02:12:49.123Z,22.92
2018-12-07T02:15:15.760Z,22.96
2018-12-07T02:17:42.425Z,22.99
2018-12-07T02:20:09.070Z,22.98
2018-12-07T02:22:35.843Z,22.96
2018-12-07T02:25:02.478Z,22.86
2018-12-07T02:27:29.119Z,22.72
2018-12-07T02:29:55.766Z,22.75
2018-12-07T02:32:22.423Z,22.73
2018-12-07T02:34:49.067Z,22.76
2018-12-07T02:37:15.856Z,22.77
2018-12-07T02:39:42.514Z,22.77
2018-12-07T02:42:09.160Z,22.83
2018-12-07T02:44:35.800Z,22.78
2018-12-07T02:47:02.495Z,22.84
2018-12-07T02:49:29.137Z,22.83
2018-12-07T02:51:55.785Z,22.83
2018-12-07T02:54:22.434Z,22.85
2018-12-07T02:56:49.125Z,22.86
2018-12-07T02:59:15.812Z,22.88
2018-12-07T03:01:42.459Z,22.88
2018-12-07T03:04:09.248Z,22.89
2018-12-07T03:06:35.901Z,22.91
2018-12-07T03:09:02.605Z,22.92
2018-12-07T03:11:29.261Z,22.92
2018-12-07T03:13:55.969Z,22.88
2018-12-07T03:16:22.612Z,22.78
2018-12-07T03:18:49.260Z,22.65
2018-12-07T03:21:15.908Z,22.69
2018-12-07T03:23:42.563Z,22.69
2018-12-07T03:26:09.218Z,22.69
2018-12-07T03:28:35.860Z,22.70
2018-12-07T03:31:02.564Z,22.73
2018-12-07T03:33:29.205Z,22.72
2018-12-07T03:35:55.895Z,22.73
2018-12-07T03:38:22.555Z,22.77
2018-12-07T03:40:49.210Z,22.76
2018-12-07T03:43:15.848Z,22.78
2018-12-07T03:45:43.844Z,22.82
2018-12-07T03:48:09.202Z,22.82
2018-12-07T03:50:35.900Z,22.82
2018-12-07T03:53:02.541Z,22.85
2018-12-07T03:55:29.225Z,22.80
2018-12-07T03:57:55.875Z,22.82
2018-12-07T04:00:22.525Z,22.80
2018-12-07T04:02:49.259Z,22.72
2018-12-07T04:05:15.879Z,22.59
2018-12-07T04:07:42.600Z,22.63
2018-12-07T04:10:09.266Z,22.67
2018-12-07T04:12:35.918Z,22.64
2018-12-07T04:15:02.626Z,22.64
2018-12-07T04:17:29.314Z,22.67
2018-12-07T04:19:55.960Z,22.68
2018-12-07T04:22:22.671Z,22.75
2018-12-07T04:24:49.440Z,22.73
2018-12-07T04:27:16.127Z,22.73
2018-12-07T04:29:42.834Z,22.75
2018-12-07T04:32:09.482Z,22.73
2018-12-07T04:34:36.170Z,22.76
2018-12-07T04:37:02.808Z,22.78
2018-12-07T04:39:29.470Z,22.81
2018-12-07T04:41:56.123Z,22.81
2018-12-07T04:44:22.818Z,22.87
2018-12-07T04:46:49.453Z,22.84
2018-12-07T04:49:16.104Z,22.81
2018-12-07T04:51:42.813Z,22.69
2018-12-07T04:54:09.513Z,22.56
2018-12-07T04:56:36.158Z,22.62
2018-12-07T04:59:02.808Z,22.74
2018-12-07T05:01:29.461Z,22.83
2018-12-07T05:03:56.109Z,22.76
2018-12-07T05:06:22.755Z,23.07
2018-12-07T05:08:49.457Z,22.94
2018-12-07T05:11:16.099Z,23.02
2018-12-07T05:13:42.746Z,22.87
2018-12-07T05:16:09.441Z,22.83
2018-12-07T05:18:36.127Z,22.81
2018-12-07T05:21:02.821Z,22.85
2018-12-07T05:23:29.461Z,22.95
2018-12-07T05:25:56.218Z,22.97
2018-12-07T05:28:22.921Z,22.95
2018-12-07T05:30:49.562Z,22.87
2018-12-07T05:33:16.225Z,22.91
2018-12-07T05:35:42.876Z,23.05
2018-12-07T05:38:09.571Z,22.74
2018-12-07T05:40:36.289Z,22.62
2018-12-07T05:43:02.931Z,22.74
2018-12-07T05:45:29.627Z,22.90
2018-12-07T05:47:56.287Z,22.93
2018-12-07T05:50:22.927Z,22.96
2018-12-07T05:52:49.585Z,22.81
2018-12-07T05:55:16.237Z,22.80
2018-12-07T05:57:42.879Z,22.83
2018-12-07T06:00:09.544Z,22.83
2018-12-07T06:02:36.203Z,22.81
2018-12-07T06:05:02.896Z,22.99
2018-12-07T06:07:29.546Z,22.93
2018-12-07T06:09:56.198Z,22.95
2018-12-07T06:12:22.843Z,22.96
2018-12-07T06:14:49.542Z,22.98
2018-12-07T06:17:16.181Z,23.03
2018-12-07T06:19:42.842Z,23.03
2018-12-07T06:22:09.533Z,23.14
2018-12-07T06:24:36.230Z,23.37
2018-12-07T06:27:02.915Z,23.32
2018-12-07T06:29:29.607Z,23.31
2018-12-07T06:31:56.255Z,23.36
2018-12-07T06:34:22.910Z,23.42
2018-12-07T06:36:49.666Z,23.43
2018-12-07T06:39:16.526Z,23.36
2018-12-07T06:41:43.148Z,23.24
2018-12-07T06:44:09.877Z,23.22
2018-12-07T06:46:36.527Z,23.41
2018-12-07T06:49:03.231Z,23.68
2018-12-07T06:51:29.931Z,23.64
2018-12-07T06:53:57.140Z,23.90
2018-12-07T06:56:23.847Z,24.14
2018-12-07T06:58:50.500Z,24.09
2018-12-07T07:01:17.158Z,24.16
2018-12-07T07:03:43.820Z,24.21
2018-12-07T07:06:10.488Z,24.21
2018-12-07T07:08:37.270Z,24.15
2018-12-07T07:11:03.906Z,24.12
2018-12-07T07:13:30.571Z,23.88
2018-12-07T07:15:57.237Z,23.69
2018-12-07T07:18:23.924Z,23.62
2018-12-07T07:20:50.587Z,23.60
2018-12-07T07:23:17.246Z,23.99
2018-12-07T07:25:43.945Z,24.20
2018-12-07T07:28:10.675Z,24.42
2018-12-07T07:30:37.322Z,24.39
2018-12-07T07:33:03.973Z,24.48
2018-12-07T07:35:30.677Z,24.63
2018-12-07T07:37:57.319Z,24.82
2018-12-07T07:40:23.988Z,24.63
2018-12-07T07:42:50.666Z,24.74
2018-12-07T07:45:17.453Z,24.84
2018-12-07T07:47:44.159Z,24.88
2018-12-07T07:50:10.828Z,24.75
2018-12-07T07:52:37.567Z,24.92
2018-12-07T07:55:05.254Z,24.96
2018-12-07T07:57:31.938Z,24.86
2018-12-07T07:59:58.652Z,25.01
2018-12-07T08:02:25.340Z,24.97
2018-12-07T08:04:51.992Z,24.89
2018-12-07T08:07:18.644Z,24.88
2018-12-07T08:09:45.874Z,24.88
2018-12-07T08:12:12.536Z,24.89
2018-12-07T08:14:40.206Z,24.72
2018-12-07T08:17:06.881Z,24.63
2018-12-07T08:19:33.529Z,24.63
2018-12-07T08:22:00.217Z,24.63
2018-12-07T08:24:26.923Z,24.60
2018-12-07T08:26:53.571Z,24.59
2018-12-07T08:29:20.227Z,24.59
2018-12-07T08:31:46.870Z,24.52
2018-12-07T08:34:13.530Z,24.49
2018-12-07T08:36:40.178Z,24.60
2018-12-07T08:39:06.849Z,24.74
2018-12-07T08:41:33.596Z,24.55
2018-12-07T08:44:00.301Z,24.52
2018-12-07T08:46:26.957Z,24.65
2018-12-07T08:48:53.639Z,24.57
2018-12-07T08:51:20.389Z,24.63
2018-12-07T08:53:47.256Z,24.53
2018-12-07T08:56:13.914Z,24.62
2018-12-07T08:58:40.644Z,24.59
2018-12-07T09:01:07.429Z,24.47
2018-12-07T09:03:34.171Z,24.38
2018-12-07T09:06:00.885Z,24.57
2018-12-07T09:08:27.601Z,24.51
2018-12-07T09:10:56.437Z,24.53
2018-12-07T09:13:23.121Z,24.62
2018-12-07T09:15:49.771Z,24.49
2018-12-07T09:18:16.468Z,24.67
2018-12-07T09:20:43.184Z,24.62
2018-12-07T09:23:09.861Z,24.61
2018-12-07T09:25:36.515Z,24.50
2018-12-07T09:28:03.172Z,24.55
2018-12-07T09:30:29.867Z,24.67
2018-12-07T09:32:56.578Z,24.53
2018-12-07T09:35:23.338Z,24.51
2018-12-07T09:37:49.951Z,24.54
2018-12-07T09:40:16.656Z,24.44
2018-12-07T09:42:43.430Z,24.55
2018-12-07T09:45:10.125Z,24.49
2018-12-07T09:47:36.833Z,24.47
2018-12-07T09:50:03.479Z,24.59
2018-12-07T09:52:30.185Z,24.50
2018-12-07T09:54:56.827Z,24.50
2018-12-07T09:57:23.479Z,24.51
2018-12-07T09:59:50.137Z,24.52
2018-12-07T10:02:16.941Z,24.57
2018-12-07T10:04:43.643Z,24.63
2018-12-07T10:07:10.284Z,24.53
2018-12-07T10:09:36.938Z,24.61
2018-12-07T10:12:03.638Z,24.56
2018-12-07T10:14:30.348Z,24.61
2018-12-07T10:16:57.187Z,24.76
2018-12-07T10:19:23.856Z,24.58
2018-12-07T10:21:50.587Z,24.50
2018-12-07T10:24:17.177Z,24.45
2018-12-07T10:26:43.873Z,24.43
2018-12-07T10:29:10.526Z,24.45
2018-12-07T10:31:37.179Z,24.49
2018-12-07T10:34:03.949Z,24.47
2018-12-07T10:36:30.595Z,24.53
2018-12-07T10:38:57.291Z,24.39
2018-12-07T10:41:23.926Z,24.52
2018-12-07T10:43:50.621Z,24.45
2018-12-07T10:46:17.278Z,24.43
2018-12-07T10:48:43.975Z,24.41
2018-12-07T10:51:10.672Z,24.43
2018-12-07T10:53:37.343Z,24.45
2018-12-07T10:56:05.229Z,24.57
2018-12-07T10:58:30.657Z,24.55
2018-12-07T11:00:57.383Z,24.69
2018-12-07T11:03:26.266Z,24.52
2018-12-07T11:05:53.007Z,24.62
2018-12-07T11:08:19.750Z,24.57
2018-12-07T11:10:46.392Z,24.58
2018-12-07T11:13:13.113Z,24.47
2018-12-07T11:15:39.785Z,24.71
2018-12-07T11:18:06.436Z,24.65
2018-12-07T11:20:33.120Z,24.66
2018-12-07T11:23:00.259Z,24.64
2018-12-07T11:25:26.984Z,24.67
2018-12-07T11:27:53.652Z,24.81
2018-12-07T11:30:20.313Z,24.87
2018-12-07T11:32:48.066Z,24.72
2018-12-07T11:35:17.566Z,24.80
2018-12-07T11:37:44.202Z,24.84
2018-12-07T11:40:10.911Z,24.85
2018-12-07T11:42:37.568Z,24.78
2018-12-07T11:45:04.214Z,24.81
2018-12-07T11:47:30.866Z,24.78
2018-12-07T11:49:57.585Z,24.82
2018-12-07T11:52:27.808Z,24.82
2018-12-07T11:54:54.513Z,24.90
2018-12-07T11:57:22.330Z,24.84
2018-12-07T11:59:49.051Z,24.90
2018-12-07T12:02:15.768Z,24.84
2018-12-07T12:04:42.426Z,24.95
2018-12-07T12:07:09.106Z,25.05
2018-12-07T12:09:35.747Z,24.95
2018-12-07T12:12:02.422Z,24.91
2018-12-07T12:14:30.308Z,25.00
2018-12-07T12:16:56.959Z,24.96
2018-12-07T12:19:24.730Z,25.03
2018-12-07T12:21:51.384Z,24.89
2018-12-07T12:24:18.089Z,24.92
2018-12-07T12:26:44.833Z,24.83
2018-12-07T12:29:11.470Z,24.98
2018-12-07T12:31:40.272Z,24.82
2018-12-07T12:34:09.038Z,24.85
2018-12-07T12:36:37.032Z,25.01
2018-12-07T12:39:03.868Z,24.84
2018-12-07T12:41:30.918Z,24.92
2018-12-07T12:43:57.655Z,24.91
2018-12-07T12:46:24.494Z,24.90
2018-12-07T12:48:51.278Z,24.98
2018-12-07T12:51:18.083Z,25.02
2018-12-07T12:53:44.773Z,24.89
2018-12-07T12:56:14.130Z,24.82
2018-12-07T12:58:43.546Z,24.80
2018-12-07T13:01:10.288Z,24.81
2018-12-07T13:03:36.958Z,24.90
2018-12-07T13:06:03.603Z,24.88
2018-12-07T13:08:30.357Z,24.84
2018-12-07T13:10:57.053Z,24.84
2018-12-07T13:13:23.694Z,25.03
2018-12-07T13:15:50.448Z,24.77
2018-12-07T13:18:17.142Z,24.98
2018-12-07T13:20:43.840Z,24.98
2018-12-07T13:23:10.538Z,24.76
2018-12-07T13:25:37.219Z,24.78
2018-12-07T13:28:03.983Z,24.78
2018-12-07T13:30:30.631Z,24.84
2018-12-07T13:32:57.355Z,24.91
2018-12-07T13:35:24.016Z,24.91
2018-12-07T13:37:51.040Z,24.94
2018-12-07T13:40:17.975Z,24.92
2018-12-07T13:42:44.637Z,24.84
2018-12-07T13:45:11.531Z,24.90
2018-12-07T13:47:38.113Z,24.93
2018-12-07T13:50:05.819Z,24.94
2018-12-07T13:52:32.609Z,24.95
2018-12-07T13:54:59.243Z,24.88
2018-12-07T13:57:25.984Z,24.95
2018-12-07T13:59:54.154Z,24.95
2018-12-07T14:02:19.436Z,25.03
2018-12-07T14:04:46.111Z,24.95
2018-12-07T14:07:12.949Z,25.03
2018-12-07T14:09:39.470Z,24.82
2018-12-07T14:12:06.244Z,24.84
2018-12-07T14:14:32.939Z,24.74
2018-12-07T14:17:01.221Z,24.86
2018-12-07T14:19:27.898Z,24.77
2018-12-07T14:21:54.547Z,24.78
2018-12-07T14:24:21.172Z,24.76
2018-12-07T14:26:47.883Z,24.76
2018-12-07T14:29:14.752Z,24.90
2018-12-07T14:31:41.411Z,24.71
2018-12-07T14:34:08.221Z,24.67
2018-12-07T14:36:34.984Z,24.65
2018-12-07T14:39:01.612Z,24.81
2018-12-07T14:41:28.533Z,24.62
2018-12-07T14:43:55.020Z,24.62
2018-12-07T14:46:21.672Z,24.56
2018-12-07T14:48:48.324Z,24.63
2018-12-07T14:51:15.074Z,24.53
2018-12-07T14:53:41.732Z,24.49
2018-12-07T14:56:08.455Z,24.53
2018-12-07T14:58:35.247Z,24.56
2018-12-07T15:01:01.979Z,24.49
2018-12-07T15:03:28.889Z,24.47
2018-12-07T15:05:55.349Z,24.62
2018-12-07T15:08:22.058Z,24.50
2018-12-07T15:10:48.861Z,24.48
2018-12-07T15:13:15.483Z,24.50
2018-12-07T15:15:41.992Z,24.35
2018-12-07T15:18:09.962Z,24.16
2018-12-07T15:20:36.524Z,24.00
2018-12-07T15:23:03.211Z,24.06
2018-12-07T15:25:29.880Z,24.06
2018-12-07T15:27:56.564Z,24.20
2018-12-07T15:30:23.463Z,24.27
2018-12-07T15:32:49.990Z,24.62
2018-12-07T15:35:16.828Z,24.50
2018-12-07T15:37:43.406Z,24.44
2018-12-07T15:40:10.049Z,24.38
2018-12-07T15:42:36.856Z,24.62
2018-12-07T15:45:03.442Z,24.42
2018-12-07T15:47:30.333Z,24.48
2018-12-07T15:49:56.966Z,24.43
2018-12-07T15:52:23.744Z,24.42
2018-12-07T15:54:50.454Z,24.35
2018-12-07T15:57:17.088Z,24.37
2018-12-07T15:59:44.219Z,24.35
2018-12-07T16:02:10.960Z,24.36
2018-12-07T16:04:38.943Z,24.35
2018-12-07T16:07:05.679Z,24.39
2018-12-07T16:09:32.926Z,24.43
2018-12-07T16:11:59.750Z,24.42
2018-12-07T16:14:26.349Z,24.39
2018-12-07T16:16:52.922Z,24.41
2018-12-07T16:19:19.679Z,24.38
2018-12-07T16:21:46.556Z,24.42
2018-12-07T16:24:13.389Z,24.41
2018-12-07T16:26:39.899Z,24.38
2018-12-07T16:29:06.803Z,24.38
2018-12-07T16:31:33.544Z,24.38
2018-12-07T16:34:00.323Z,24.49
2018-12-07T16:36:27.256Z,24.25
2018-12-07T16:38:53.886Z,24.46
2018-12-07T16:41:20.645Z,24.36
2018-12-07T16:43:47.190Z,24.35
2018-12-07T16:46:13.936Z,24.33
2018-12-07T16:48:40.506Z,24.23
2018-12-07T16:51:07.220Z,24.24
2018-12-07T16:53:33.907Z,24.27
2018-12-07T16:56:00.666Z,24.20
2018-12-07T16:58:27.287Z,24.19
2018-12-07T17:00:54.014Z,24.19
2018-12-07T17:03:20.552Z,24.18
2018-12-07T17:05:47.619Z,24.18
2018-12-07T17:08:14.104Z,24.21
2018-12-07T17:10:40.718Z,24.22
2018-12-07T17:13:07.243Z,24.16
2018-12-07T17:15:34.121Z,24.15
2018-12-07T17:18:00.685Z,24.09
2018-12-07T17:20:27.480Z,24.09
2018-12-07T17:22:54.015Z,24.09
2018-12-07T17:25:20.558Z,24.06
2018-12-07T17:27:47.458Z,24.09
2018-12-07T17:30:13.920Z,24.06
2018-12-07T17:32:40.599Z,24.09
2018-12-07T17:35:07.400Z,24.08
2018-12-07T17:37:34.983Z,24.07
2018-12-07T17:40:01.604Z,24.03
2018-12-07T17:42:29.757Z,24.06
2018-12-07T17:44:54.869Z,24.00
2018-12-07T17:47:21.631Z,24.03
2018-12-07T17:49:48.375Z,23.96
2018-12-07T17:52:14.876Z,24.00
2018-12-07T17:54:41.473Z,23.98
2018-12-07T17:57:08.257Z,23.99
2018-12-07T17:59:34.852Z,23.95
2018-12-07T18:02:01.434Z,23.95
2018-12-07T18:04:28.082Z,23.93
2018-12-07T18:06:54.959Z,24.01
2018-12-07T18:09:21.532Z,23.94
2018-12-07T18:11:48.294Z,23.92
2018-12-07T18:14:14.971Z,23.96
2018-12-07T18:16:41.899Z,24.02
2018-12-07T18:19:08.676Z,23.95
2018-12-07T18:21:35.162Z,23.94
2018-12-07T18:24:01.792Z,23.89
2018-12-07T18:26:28.809Z,23.91
2018-12-07T18:28:55.379Z,23.92
2018-12-07T18:31:22.071Z,23.94
2018-12-07T18:33:49.000Z,23.91
2018-12-07T18:36:15.670Z,23.92
2018-12-07T18:38:42.466Z,23.90
2018-12-07T18:41:09.275Z,23.92
2018-12-07T18:43:35.760Z,23.86
2018-12-07T18:46:02.431Z,23.88
2018-12-07T18:48:29.453Z,23.90
2018-12-07T18:50:55.935Z,23.95
2018-12-07T18:53:22.478Z,23.87
2018-12-07T18:55:49.064Z,23.87
2018-12-07T18:58:15.699Z,23.88
2018-12-07T19:00:42.452Z,23.85
2018-12-07T19:03:09.197Z,23.84
2018-12-07T19:05:35.701Z,23.84
2018-12-07T19:08:02.381Z,23.92
2018-12-07T19:10:29.041Z,23.82
2018-12-07T19:12:55.615Z,23.85
2018-12-07T19:15:22.254Z,23.83
2018-12-07T19:17:49.044Z,23.82
2018-12-07T19:20:15.723Z,23.82
2018-12-07T19:22:42.360Z,23.82
2018-12-07T19:25:08.909Z,23.75
2018-12-07T19:27:35.614Z,23.82
2018-12-07T19:30:02.389Z,23.83
2018-12-07T19:32:29.124Z,23.75
2018-12-07T19:34:55.728Z,23.76
2018-12-07T19:37:22.368Z,23.79
2018-12-07T19:39:48.939Z,23.73
2018-12-07T19:42:15.905Z,23.75
2018-12-07T19:44:42.444Z,23.74
2018-12-07T19:47:09.047Z,23.75
2018-12-07T19:49:35.773Z,23.65
2018-12-07T19:52:02.332Z,23.85
2018-12-07T19:54:29.139Z,23.69
2018-12-07T19:56:55.726Z,23.73
2018-12-07T19:59:22.429Z,23.60
2018-12-07T20:01:49.137Z,23.69
2018-12-07T20:04:15.773Z,23.58
2018-12-07T20:06:42.444Z,23.60
2018-12-07T20:09:09.102Z,23.58
2018-12-07T20:11:36.102Z,23.64
2018-12-07T20:14:02.373Z,23.56
2018-12-07T20:16:29.365Z,23.61
2018-12-07T20:18:55.724Z,23.51
2018-12-07T20:21:22.536Z,23.59
2018-12-07T20:23:49.097Z,23.53
2018-12-07T20:26:15.789Z,23.51
2018-12-07T20:28:42.544Z,23.48
2018-12-07T20:31:09.417Z,23.45
2018-12-07T20:33:36.285Z,23.48
2018-12-07T20:36:02.703Z,23.49
2018-12-07T20:38:29.558Z,23.42
2018-12-07T20:40:56.392Z,23.48
2018-12-07T20:43:23.036Z,23.44
2018-12-07T20:45:49.468Z,23.43
2018-12-07T20:48:16.145Z,23.49
2018-12-07T20:50:43.047Z,23.44
2018-12-07T20:53:09.708Z,23.37
2018-12-07T20:55:36.279Z,23.43
2018-12-07T20:58:04.072Z,23.37
2018-12-07T21:00:29.641Z,23.38
2018-12-07T21:02:56.282Z,23.38
2018-12-07T21:05:22.963Z,23.39
2018-12-07T21:07:49.701Z,23.35
2018-12-07T21:10:16.348Z,23.39
2018-12-07T21:12:45.160Z,23.38
2018-12-07T21:15:11.760Z,23.38
2018-12-07T21:17:38.644Z,23.36
2018-12-07T21:20:05.200Z,23.32
2018-12-07T21:22:32.006Z,23.35
2018-12-07T21:24:58.346Z,23.34
2018-12-07T21:27:25.128Z,23.30
2018-12-07T21:29:51.826Z,23.29
2018-12-07T21:32:18.404Z,23.26
2018-12-07T21:34:45.059Z,23.25
2018-12-07T21:37:12.017Z,23.27
2018-12-07T21:39:38.440Z,23.28
2018-12-07T21:42:05.058Z,23.31
2018-12-07T21:44:31.858Z,23.29
2018-12-07T21:46:58.430Z,23.34
2018-12-07T21:49:25.058Z,23.36
2018-12-07T21:51:52.035Z,23.38
2018-12-07T21:54:18.575Z,23.34
2018-12-07T21:56:45.283Z,23.34
2018-12-07T21:59:12.036Z,23.35
2018-12-07T22:01:38.950Z,23.35
2018-12-07T22:04:05.911Z,23.33
2018-12-07T22:06:32.424Z,23.35
2018-12-07T22:08:58.977Z,23.36
2018-12-07T22:11:25.880Z,23.36
2018-12-07T22:13:52.574Z,23.37
2018-12-07T22:16:18.920Z,23.26
2018-12-07T22:18:45.656Z,23.10
2018-12-07T22:21:12.561Z,23.17
2018-12-07T22:23:39.019Z,23.20
2018-12-07T22:26:05.605Z,23.19
2018-12-07T22:28:32.541Z,23.25
2018-12-07T22:30:59.021Z,23.24
2018-12-07T22:33:25.978Z,23.26
2018-12-07T22:35:52.560Z,23.27
2018-12-07T22:38:19.258Z,23.34
2018-12-07T22:40:45.833Z,23.30
2018-12-07T22:43:12.781Z,23.30
2018-12-07T22:45:39.112Z,23.26
2018-12-07T22:48:05.924Z,23.23
2018-12-07T22:50:32.438Z,23.20
2018-12-07T22:52:59.073Z,23.16
2018-12-07T22:55:25.709Z,23.13
2018-12-07T22:57:52.360Z,23.20
2018-12-07T23:00:19.074Z,23.17
2018-12-07T23:02:45.709Z,23.15
2018-12-07T23:05:12.568Z,23.13
2018-12-07T23:07:39.205Z,23.12
2018-12-07T23:10:05.862Z,23.14
2018-12-07T23:12:32.503Z,23.14
2018-12-07T23:14:59.207Z,23.14
2018-12-07T23:17:25.848Z,23.08
2018-12-07T23:19:52.548Z,23.00
2018-12-07T23:22:19.194Z,22.87
2018-12-07T23:24:48.902Z,22.62
2018-12-07T23:27:15.618Z,22.40
2018-12-07T23:29:42.260Z,22.42
2018-12-07T23:32:08.897Z,22.69
2018-12-07T23:34:35.557Z,22.77
2018-12-07T23:37:02.212Z,22.85
2018-12-07T23:39:28.922Z,22.88
2018-12-07T23:41:55.560Z,22.94
2018-12-07T23:44:22.264Z,22.99
2018-12-07T23:46:48.904Z,23.02
2018-12-07T23:49:15.546Z,23.05
2018-12-07T23:51:42.183Z,23.06
2018-12-07T23:54:08.896Z,23.04
2018-12-07T23:56:35.544Z,23.07
2018-12-07T23:59:02.182Z,23.04
